Time;durP1;ratioP1;P1;durP2;ratioP2;P2;SDS_P1;SDS_P2;PMS_P1;PMS_P2;Temp;Humidity;BMP_temperature;BMP_pressure;BME280_temperature;BME280_humidity;BME280_pressure;Samples;Min_cycle;Max_cycle;Signal;HPM_P1;HPM_P2
2021/10/10 00:02:06;;;;;;;8.93;7.57;;;;;;;;;;5054072;28;20366;-59
2021/10/10 00:04:46;;;;;;;10.20;7.95;;;;;;;;;;5058883;28;20108;-59
2021/10/10 00:13:17;;;;;;;13.13;8.10;;;;;;;;;;5059498;28;20482;-59
2021/10/10 00:18:58;;;;;;;11.53;7.77;;;;;;;;;;5057615;28;20067;-59
2021/10/10 00:21:46;;;;;;;11.63;8.00;;;;;;;;;;5057463;28;20115;-59
2021/10/10 00:24:19;;;;;;;9.73;6.53;;;;;;;;;;5058453;28;20120;-59
2021/10/10 00:26:51;;;;;;;9.10;7.03;;;;;;;;;;5056923;28;20025;-59
2021/10/10 00:32:52;;;;;;;9.75;7.47;;;;;;;;;;5064837;28;20116;-59
2021/10/10 00:35:47;;;;;;;12.00;7.85;;;;;;;;;;5058430;28;20025;-59
2021/10/10 00:41:39;;;;;;;14.32;8.13;;;;;;;;;;5057812;28;20044;-59
2021/10/10 00:50:00;;;;;;;13.15;8.57;;;;;;;;;;5056599;28;20133;-59
2021/10/10 00:58:12;;;;;;;16.07;8.70;;;;;;;;;;5058402;28;20029;-59
2021/10/10 01:00:54;;;;;;;10.55;7.85;;;;;;;;;;5059581;28;20613;-59
2021/10/10 01:03:29;;;;;;;9.82;8.07;;;;;;;;;;5061068;28;20033;-59
2021/10/10 01:12:40;;;;;;;8.23;6.97;;;;;;;;;;5061020;28;20063;-59
2021/10/10 01:15:22;;;;;;;12.43;8.27;;;;;;;;;;5061572;28;20029;-59
2021/10/10 01:23:35;;;;;;;13.88;8.25;;;;;;;;;;5061179;28;19920;-59
2021/10/10 01:26:14;;;;;;;10.57;8.02;;;;;;;;;;5061317;28;20025;-59
2021/10/10 01:31:45;;;;;;;12.43;7.68;;;;;;;;;;5067418;28;20061;-59
2021/10/10 01:34:18;;;;;;;12.30;7.72;;;;;;;;;;5081310;28;20024;-59
2021/10/10 01:40:08;;;;;;;13.15;8.52;;;;;;;;;;5079424;28;20396;-58
2021/10/10 01:42:49;;;;;;;15.18;8.60;;;;;;;;;;5080067;28;20040;-59
2021/10/10 01:45:36;;;;;;;12.95;7.65;;;;;;;;;;5081337;28;20058;-59
2021/10/10 01:48:10;;;;;;;15.45;8.52;;;;;;;;;;5081048;28;20028;-59
2021/10/10 01:54:04;;;;;;;13.52;7.95;;;;;;;;;;5081335;28;20033;-59
2021/10/10 01:56:34;;;;;;;13.10;7.93;;;;;;;;;;5081559;28;20028;-59
2021/10/10 01:59:01;;;;;;;13.80;8.68;;;;;;;;;;5081227;28;20029;-59
2021/10/10 02:01:30;;;;;;;10.82;7.93;;;;;;;;;;5081787;28;20036;-59
2021/10/10 02:07:07;;;;;;;14.52;8.18;;;;;;;;;;5078719;28;20129;-59
2021/10/10 02:09:46;;;;;;;;;;;;;;;;;;;;;
2021/10/10 02:12:39;;;;;;;11.13;8.60;;;;;;;;;;5079139;28;20080;-59
2021/10/10 02:15:11;;;;;;;11.40;8.75;;;;;;;;;;5080249;28;20052;-59
2021/10/10 02:17:49;;;;;;;13.98;8.18;;;;;;;;;;5079099;28;20030;-59
2021/10/10 02:23:11;;;;;;;13.27;8.00;;;;;;;;;;5079291;28;20040;-59
2021/10/10 02:25:44;;;;;;;12.02;7.88;;;;;;;;;;5080332;28;20024;-59
2021/10/10 02:28:29;;;;;;;12.52;9.07;;;;;;;;;;5079132;28;20089;-59
2021/10/10 02:31:08;;;;;;;9.93;7.93;;;;;;;;;;5080787;28;20032;-59
2021/10/10 02:33:43;;;;;;;11.57;8.18;;;;;;;;;;5060616;28;20044;-59
2021/10/10 02:36:28;;;;;;;11.73;9.80;;;;;;;;;;5060711;28;20086;-59
2021/10/10 02:42:50;;;;;;;10.27;8.30;;;;;;;;;;5061099;28;20509;-59
2021/10/10 02:45:37;;;;;;;;;;;;;;;;;;;;;
2021/10/10 02:48:47;;;;;;;;;;;;;;;;;;;;;
2021/10/10 02:51:35;;;;;;;11.10;8.57;;;;;;;;;;5039670;28;20136;-58
2021/10/10 02:54:36;;;;;;;11.20;8.00;;;;;;;;;;5059072;28;20033;-59
2021/10/10 02:57:09;;;;;;;12.10;9.48;;;;;;;;;;5051556;28;20102;-59
2021/10/10 02:59:51;;;;;;;11.40;7.72;;;;;;;;;;5059803;28;20447;-59
2021/10/10 03:02:26;;;;;;;11.93;8.48;;;;;;;;;;5060477;28;20471;-59
2021/10/10 03:04:54;;;;;;;12.35;8.52;;;;;;;;;;5060366;28;20451;-59
2021/10/10 03:07:32;;;;;;;13.52;9.18;;;;;;;;;;5059627;28;20025;-59
2021/10/10 03:10:36;;;;;;;12.18;9.10;;;;;;;;;;5059767;28;20082;-59
2021/10/10 03:13:36;;;;;;;;;;;;;;;;;;;;;
2021/10/10 03:16:15;;;;;;;10.50;7.82;;;;;;;;;;5058114;28;20523;-59
2021/10/10 03:19:06;;;;;;;11.75;8.73;;;;;;;;;;5059660;28;20083;-59
2021/10/10 03:21:39;;;;;;;21.63;9.85;;;;;;;;;;5059170;28;20029;-58
2021/10/10 03:24:09;;;;;;;14.88;9.32;;;;;;;;;;5057654;28;20076;-59
2021/10/10 03:33:08;;;;;;;10.32;8.68;;;;;;;;;;5041445;28;20518;-59
2021/10/10 03:36:28;;;;;;;15.68;9.00;;;;;;;;;;5057078;28;20037;-58
2021/10/10 03:39:06;;;;;;;10.95;8.20;;;;;;;;;;5068829;28;20094;-59
2021/10/10 03:41:33;;;;;;;10.90;8.45;;;;;;;;;;5067922;28;20040;-59
2021/10/10 03:44:39;;;;;;;12.50;9.75;;;;;;;;;;5072662;28;20032;-59
2021/10/10 03:47:27;;;;;;;22.38;9.88;;;;;;;;;;5051493;28;20021;-59
2021/10/10 03:50:03;;;;;;;14.50;10.32;;;;;;;;;;5069053;28;20700;-59
2021/10/10 03:52:40;;;;;;;13.98;9.40;;;;;;;;;;5071623;28;20024;-58
2021/10/10 03:55:37;;;;;;;14.25;9.40;;;;;;;;;;5071807;28;20419;-59
2021/10/10 03:58:08;;;;;;;12.85;8.77;;;;;;;;;;5070755;28;20423;-58
2021/10/10 04:00:55;;;;;;;16.20;10.00;;;;;;;;;;5073051;28;20032;-59
2021/10/10 04:03:33;;;;;;;15.45;9.90;;;;;;;;;;5072754;28;20037;-58
2021/10/10 04:06:28;;;;;;;11.38;9.38;;;;;;;;;;5056559;28;20111;-58
2021/10/10 04:12:04;;;;;;;;;;;;;;;;;;;;;
2021/10/10 04:14:55;;;;;;;11.75;9.65;;;;;;;;;;5052362;28;20406;-58
2021/10/10 04:17:33;;;;;;;12.43;9.32;;;;;;;;;;5067617;28;20474;-59
2021/10/10 04:20:25;;;;;;;11.23;8.57;;;;;;;;;;5069834;28;20024;-59
2021/10/10 04:26:07;;;;;;;12.27;9.77;;;;;;;;;;5082948;28;20036;-58
2021/10/10 04:29:00;;;;;;;11.73;10.32;;;;;;;;;;5045997;28;20049;-59
2021/10/10 04:31:49;;;;;;;12.48;10.02;;;;;;;;;;5069167;28;20032;-58
2021/10/10 04:37:34;;;;;;;10.77;8.75;;;;;;;;;;5049009;28;20037;-59
2021/10/10 04:40:16;;;;;;;11.40;8.32;;;;;;;;;;5065819;28;20402;-59
2021/10/10 04:42:48;;;;;;;12.48;8.73;;;;;;;;;;5053335;28;20401;-59
2021/10/10 04:45:19;;;;;;;14.70;8.73;;;;;;;;;;5062791;28;20455;-59
2021/10/10 04:47:55;;;;;;;13.45;8.93;;;;;;;;;;5069505;28;20445;-59
2021/10/10 04:50:45;;;;;;;10.23;8.82;;;;;;;;;;5070854;28;20040;-58
2021/10/10 04:53:21;;;;;;;16.92;10.15;;;;;;;;;;5066741;28;20077;-59
2021/10/10 04:55:59;;;;;;;14.77;10.23;;;;;;;;;;5062360;28;20036;-59
2021/10/10 04:58:34;;;;;;;12.68;9.35;;;;;;;;;;5066825;28;20459;-59
2021/10/10 05:01:20;;;;;;;10.90;8.75;;;;;;;;;;5067846;28;20443;-59
2021/10/10 05:04:22;;;;;;;13.93;9.10;;;;;;;;;;5054572;28;20041;-59
2021/10/10 05:13:29;;;;;;;15.57;9.45;;;;;;;;;;5070294;28;20029;-59
2021/10/10 05:16:14;;;;;;;13.18;8.57;;;;;;;;;;5053378;28;20560;-59
2021/10/10 05:19:13;;;;;;;11.95;9.13;;;;;;;;;;5033354;28;20040;-59
2021/10/10 05:21:55;;;;;;;15.43;10.52;;;;;;;;;;5049801;28;20047;-59
2021/10/10 05:24:58;;;;;;;;;;;;;;;;;;;;;
2021/10/10 05:27:28;;;;;;;16.10;10.57;;;;;;;;;;5071309;28;20123;-59
2021/10/10 05:30:22;;;;;;;14.15;10.63;;;;;;;;;;5064166;28;20029;-59
2021/10/10 05:33:25;;;;;;;14.90;10.32;;;;;;;;;;5076471;28;20162;-59
2021/10/10 05:36:03;;;;;;;13.75;9.70;;;;;;;;;;5092788;28;20032;-59
2021/10/10 05:41:43;;;;;;;13.43;9.48;;;;;;;;;;5093056;28;20054;-59
2021/10/10 05:44:37;;;;;;;17.73;9.35;;;;;;;;;;5091488;28;20039;-59
2021/10/10 05:50:26;;;;;;;16.88;11.23;;;;;;;;;;5054496;28;20083;-59
2021/10/10 05:53:06;;;;;;;16.35;9.82;;;;;;;;;;5054402;28;20048;-59
2021/10/10 05:58:54;;;;;;;12.73;9.77;;;;;;;;;;5053690;28;20036;-59
2021/10/10 06:01:39;;;;;;;14.48;10.32;;;;;;;;;;5065071;28;20501;-59
2021/10/10 06:04:13;;;;;;;13.48;9.48;;;;;;;;;;5065494;28;20029;-59
2021/10/10 06:07:07;;;;;;;17.83;10.88;;;;;;;;;;5061469;28;20479;-59
2021/10/10 06:09:47;;;;;;;17.45;10.80;;;;;;;;;;5050812;28;20060;-59
2021/10/10 06:12:33;;;;;;;11.88;8.52;;;;;;;;;;5073254;28;20024;-59
2021/10/10 06:15:19;;;;;;;11.07;9.02;;;;;;;;;;5070113;28;20529;-59
2021/10/10 06:20:47;;;;;;;19.13;10.88;;;;;;;;;;5064284;28;20035;-59
2021/10/10 06:23:31;;;;;;;14.20;10.60;;;;;;;;;;5058717;28;20313;-60
2021/10/10 06:26:26;;;;;;;13.02;9.80;;;;;;;;;;5073710;28;20482;-59
2021/10/10 06:29:14;;;;;;;14.90;10.63;;;;;;;;;;5082988;28;20045;-59
2021/10/10 06:32:20;;;;;;;;;;;;;;;;;;;;;
2021/10/10 06:34:47;;;;;;;;;;;;;;;;;;5053786;28;20070;-59
2021/10/10 06:37:39;;;;;;;18.33;9.02;;;;;;;;;;5053714;28;19905;-59
2021/10/10 06:43:41;;;;;;;16.05;10.57;;;;;;;;;;5054146;28;20040;-59
2021/10/10 06:46:23;;;;;;;16.98;10.00;;;;;;;;;;5074247;28;20039;-59
2021/10/10 06:49:12;;;;;;;13.23;10.23;;;;;;;;;;5073579;28;20020;-59
2021/10/10 06:52:13;;;;;;;16.13;10.95;;;;;;;;;;5073042;28;20340;-59
2021/10/10 06:54:53;;;;;;;14.38;11.07;;;;;;;;;;5059502;28;20529;-59
2021/10/10 06:58:07;;;;;;;15.05;11.15;;;;;;;;;;5053502;28;20037;-59
2021/10/10 07:00:51;;;;;;;21.85;10.65;;;;;;;;;;5054058;28;20025;-59
2021/10/10 07:03:39;;;;;;;11.80;10.48;;;;;;;;;;5055187;28;20036;-59
2021/10/10 07:09:13;;;;;;;14.02;11.48;;;;;;;;;;5074671;28;20382;-59
2021/10/10 07:15:01;;;;;;;13.20;10.23;;;;;;;;;;5065580;28;20036;-59
2021/10/10 07:20:44;;;;;;;13.80;10.55;;;;;;;;;;5053959;28;20037;-59
2021/10/10 07:26:18;;;;;;;16.67;12.45;;;;;;;;;;5056898;28;20020;-59
2021/10/10 07:31:36;;;;;;;13.02;11.38;;;;;;;;;;5066636;28;19912;-59
2021/10/10 07:34:37;;;;;;;;;;;;;;;;;;;;;
2021/10/10 07:37:45;;;;;;;17.08;11.30;;;;;;;;;;5049255;28;20428;-59
2021/10/10 07:40:15;;;;;;;16.20;10.55;;;;;;;;;;5032589;28;20044;-57
2021/10/10 07:43:10;;;;;;;18.33;11.02;;;;;;;;;;5057138;28;20044;-58
2021/10/10 07:45:41;;;;;;;19.50;11.80;;;;;;;;;;5060788;28;20056;-58
2021/10/10 07:48:15;;;;;;;13.90;11.27;;;;;;;;;;5065034;28;20454;-58
2021/10/10 07:50:42;;;;;;;15.93;12.93;;;;;;;;;;5071066;28;20539;-58
2021/10/10 07:53:24;;;;;;;13.90;10.73;;;;;;;;;;5051542;28;20597;-58
2021/10/10 07:59:26;;;;;;;17.00;11.38;;;;;;;;;;5047652;28;20143;-57
2021/10/10 08:02:18;;;;;;;;;;;;;;;;;;;;;
2021/10/10 08:04:59;;;;;;;16.27;11.15;;;;;;;;;;5069086;28;20389;-59
2021/10/10 08:07:59;;;;;;;14.57;10.90;;;;;;;;;;4982068;28;20082;-60
2021/10/10 08:10:31;;;;;;;13.93;11.18;;;;;;;;;;5014780;28;20506;-60
2021/10/10 08:17:00;;;;;;;12.38;9.98;;;;;;;;;;5069277;28;20509;-60
2021/10/10 08:22:56;;;;;;;13.68;11.52;;;;;;;;;;5055601;28;20035;-60
2021/10/10 08:25:34;;;;;;;15.00;12.25;;;;;;;;;;5071423;28;20477;-60
2021/10/10 08:28:20;;;;;;;16.33;10.88;;;;;;;;;;5056667;28;20044;-60
2021/10/10 08:31:09;;;;;;;;;;;;;;;;;;;;;
2021/10/10 08:33:53;;;;;;;14.27;11.07;;;;;;;;;;5059626;28;20047;-60
2021/10/10 08:36:30;;;;;;;12.70;10.88;;;;;;;;;;5072399;28;20120;-60
2021/10/10 08:39:32;;;;;;;;;;;;;;;;;;;;;
2021/10/10 08:42:11;;;;;;;13.07;11.07;;;;;;;;;;5068066;28;20029;-60
2021/10/10 08:45:00;;;;;;;18.60;12.27;;;;;;;;;;5072528;28;20086;-60
2021/10/10 08:47:42;;;;;;;17.00;11.30;;;;;;;;;;5063040;28;20025;-59
2021/10/10 08:50:27;;;;;;;12.70;10.95;;;;;;;;;;5052057;28;20037;-60
2021/10/10 08:53:08;;;;;;;16.23;12.25;;;;;;;;;;5051514;28;20364;-60
2021/10/10 08:55:46;;;;;;;15.10;11.55;;;;;;;;;;5035599;28;20060;-60
2021/10/10 08:58:23;;;;;;;17.85;12.48;;;;;;;;;;5063666;28;20129;-60
2021/10/10 09:01:16;;;;;;;13.93;10.95;;;;;;;;;;5070646;28;20162;-60
2021/10/10 09:03:54;;;;;;;17.85;12.93;;;;;;;;;;5072808;28;20629;-60
2021/10/10 09:06:39;;;;;;;13.80;10.48;;;;;;;;;;5070526;28;20027;-57
2021/10/10 09:09:41;;;;;;;15.07;10.68;;;;;;;;;;5050252;28;20043;-58
2021/10/10 09:12:31;;;;;;;15.30;11.52;;;;;;;;;;5051983;28;20021;-59
2021/10/10 09:14:58;;;;;;;;;;;;;;;;;;5051347;28;20056;-59
2021/10/10 09:20:17;;;;;;;14.43;12.10;;;;;;;;;;5053561;28;20068;-59
2021/10/10 09:28:51;;;;;;;19.63;9.52;;;;;;;;;;5063256;28;20037;-59
2021/10/10 09:31:33;;;;;;;12.63;9.35;;;;;;;;;;5072368;28;20028;-59
2021/10/10 09:34:22;;;;;;;13.68;9.43;;;;;;;;;;5057643;28;20033;-59
2021/10/10 09:36:51;;;;;;;17.67;10.10;;;;;;;;;;5054391;28;20356;-59
2021/10/10 09:39:34;;;;;;;14.30;9.27;;;;;;;;;;5055419;28;20029;-59
2021/10/10 09:45:29;;;;;;;10.23;8.43;;;;;;;;;;5045625;28;20060;-59
2021/10/10 09:54:02;;;;;;;13.65;9.90;;;;;;;;;;5052061;28;20041;-59
2021/10/10 09:56:31;;;;;;;15.45;10.95;;;;;;;;;;5056064;28;20044;-59
2021/10/10 09:59:54;;;;;;;14.77;9.25;;;;;;;;;;5053492;28;20090;-59
2021/10/10 10:05:48;;;;;;;13.57;8.57;;;;;;;;;;5017089;28;20417;-59
2021/10/10 10:08:45;;;;;;;12.00;9.70;;;;;;;;;;5066713;28;20167;-59
2021/10/10 10:11:14;;;;;;;13.02;9.15;;;;;;;;;;5073758;28;20040;-59
2021/10/10 10:14:09;;;;;;;11.60;9.38;;;;;;;;;;5068346;28;20037;-59
2021/10/10 10:16:50;;;;;;;12.07;10.00;;;;;;;;;;5055980;28;20364;-58
2021/10/10 10:19:38;;;;;;;12.45;8.50;;;;;;;;;;5053833;28;20439;-58
2021/10/10 10:22:24;;;;;;;12.05;9.38;;;;;;;;;;5070192;28;20021;-58
2021/10/10 10:28:07;;;;;;;;;;;;;;;;;;;;;
2021/10/10 10:30:37;;;;;;;9.93;8.73;;;;;;;;;;5045063;28;20421;-58
2021/10/10 10:33:13;;;;;;;;;;;;;;;;;;;;;
2021/10/10 10:36:05;;;;;;;12.32;9.48;;;;;;;;;;5056948;28;20044;-58
2021/10/10 10:39:16;;;;;;;10.48;9.32;;;;;;;;;;5053031;28;20029;-58
2021/10/10 10:41:57;;;;;;;15.93;10.05;;;;;;;;;;5053567;28;20128;-58
2021/10/10 10:48:07;;;;;;;16.23;10.25;;;;;;;;;;5044403;28;20393;-58
2021/10/10 10:50:41;;;;;;;12.05;9.40;;;;;;;;;;5065871;28;20498;-58
2021/10/10 10:54:04;;;;;;;12.93;9.63;;;;;;;;;;5072425;28;20083;-58
2021/10/10 10:56:33;;;;;;;14.50;9.20;;;;;;;;;;5073007;28;20028;-58
2021/10/10 11:02:11;;;;;;;12.68;8.65;;;;;;;;;;5053068;28;20391;-58
2021/10/10 11:04:59;;;;;;;16.17;8.93;;;;;;;;;;5053509;28;20072;-59
2021/10/10 11:07:46;;;;;;;13.73;9.73;;;;;;;;;;5050210;28;20534;-59
2021/10/10 11:13:46;;;;;;;11.65;10.23;;;;;;;;;;5053266;28;20033;-59
2021/10/10 11:16:45;;;;;;;;;;;;;;;;;;;;;
2021/10/10 11:19:36;;;;;;;;;;;;;;;;;;;;;
2021/10/10 11:22:05;;;;;;;13.60;9.35;;;;;;;;;;5052917;28;20033;-59
2021/10/10 11:27:52;;;;;;;14.18;9.07;;;;;;;;;;5043585;28;20132;-58
2021/10/10 11:33:20;;;;;;;12.20;9.30;;;;;;;;;;5070047;28;20089;-59
2021/10/10 11:42:33;;;;;;;;;;;;;;;;;;;;;
2021/10/10 11:45:55;;;;;;;14.63;9.02;;;;;;;;;;5051225;28;20123;-59
2021/10/10 11:48:43;;;;;;;11.60;8.52;;;;;;;;;;5049307;28;20474;-57
2021/10/10 11:51:49;;;;;;;;;;;;;;;;;;;;;
2021/10/10 11:54:41;;;;;;;9.43;7.72;;;;;;;;;;5049962;28;20441;-57
2021/10/10 12:02:54;;;;;;;13.05;9.05;;;;;;;;;;5068290;28;20044;-58
2021/10/10 12:08:24;;;;;;;11.55;8.85;;;;;;;;;;5071336;28;20033;-57
2021/10/10 12:11:14;;;;;;;13.50;9.35;;;;;;;;;;5072884;28;20025;-58
2021/10/10 12:14:06;;;;;;;12.88;11.20;;;;;;;;;;5036080;28;20044;-56
2021/10/10 12:17:17;;;;;;;10.48;8.80;;;;;;;;;;5053134;28;20036;-59
2021/10/10 12:20:00;;;;;;;10.93;8.63;;;;;;;;;;5049225;28;20029;-59
2021/10/10 12:22:50;;;;;;;10.43;9.32;;;;;;;;;;5060046;28;20039;-59
2021/10/10 12:25:44;;;;;;;8.55;7.72;;;;;;;;;;5072157;28;20112;-60
2021/10/10 12:28:42;;;;;;;9.93;7.93;;;;;;;;;;5070305;28;20508;-59
2021/10/10 12:31:19;;;;;;;10.77;9.13;;;;;;;;;;5070164;28;20387;-59
2021/10/10 12:34:25;;;;;;;;;;;;;;;;;;;;;
2021/10/10 12:37:17;;;;;;;;;;;;;;;;;;;;;
2021/10/10 12:40:21;;;;;;;9.73;8.70;;;;;;;;;;5051588;28;20421;-56
2021/10/10 12:43:06;;;;;;;10.05;8.60;;;;;;;;;;5054349;28;20063;-56
2021/10/10 12:45:41;;;;;;;10.25;8.90;;;;;;;;;;5050876;28;20541;-56
2021/10/10 12:48:27;;;;;;;10.85;8.70;;;;;;;;;;5051614;28;20056;-56
2021/10/10 12:51:13;;;;;;;10.75;8.82;;;;;;;;;;5065279;28;20036;-56
2021/10/10 12:53:44;;;;;;;11.05;8.55;;;;;;;;;;5071935;28;20612;-56
2021/10/10 12:56:43;;;;;;;10.43;8.15;;;;;;;;;;5075966;28;20128;-56
2021/10/10 12:59:28;;;;;;;9.10;8.18;;;;;;;;;;5071846;28;20501;-56
2021/10/10 13:02:13;;;;;;;10.05;8.38;;;;;;;;;;5058131;28;20021;-56
2021/10/10 13:05:02;;;;;;;10.55;8.10;;;;;;;;;;5058167;28;20056;-56
2021/10/10 13:08:06;;;;;;;9.05;7.93;;;;;;;;;;5057299;28;20021;-57
2021/10/10 13:10:58;;;;;;;10.63;8.20;;;;;;;;;;5065442;28;20063;-56
2021/10/10 13:16:51;;;;;;;;;;;;;;;;;;;;;
2021/10/10 13:19:23;;;;;;;11.93;8.23;;;;;;;;;;5063473;28;20043;-56
2021/10/10 13:22:12;;;;;;;10.63;7.95;;;;;;;;;;5063634;28;20055;-56
2021/10/10 13:25:10;;;;;;;11.60;7.72;;;;;;;;;;5062276;28;20079;-56
2021/10/10 13:28:10;;;;;;;11.88;7.35;;;;;;;;;;5065959;28;20028;-57
2021/10/10 13:30:45;;;;;;;15.02;8.52;;;;;;;;;;5061474;28;20041;-55
2021/10/10 13:36:20;;;;;;;11.43;8.10;;;;;;;;;;5058694;28;20061;-56
2021/10/10 13:39:12;;;;;;;;;;;;;;;;;;;;;
2021/10/10 13:41:56;;;;;;;12.48;8.00;;;;;;;;;;5061700;28;20033;-56
2021/10/10 13:47:50;;;;;;;10.23;7.68;;;;;;;;;;5065783;28;20070;-56
2021/10/10 13:53:20;;;;;;;9.25;7.68;;;;;;;;;;5064385;28;20032;-56
2021/10/10 13:56:09;;;;;;;7.85;6.47;;;;;;;;;;5061873;28;20044;-59
2021/10/10 14:01:35;;;;;;;6.32;5.25;;;;;;;;;;5064496;28;20044;-59
2021/10/10 14:04:12;;;;;;;8.75;6.88;;;;;;;;;;5064008;28;20148;-59
2021/10/10 14:07:14;;;;;;;8.50;6.65;;;;;;;;;;5066514;28;20047;-59
2021/10/10 14:21:47;;;;;;;9.82;6.53;;;;;;;;;;5065969;28;20441;-59
2021/10/10 14:24:25;;;;;;;13.82;6.70;;;;;;;;;;5065804;28;20036;-59
2021/10/10 14:27:23;;;;;;;6.70;5.35;;;;;;;;;;5053649;28;20060;-59
2021/10/10 14:30:11;;;;;;;8.68;6.90;;;;;;;;;;5060902;28;20025;-59
2021/10/10 14:32:44;;;;;;;7.45;5.95;;;;;;;;;;5062644;28;20029;-59
2021/10/10 14:35:13;;;;;;;10.52;6.15;;;;;;;;;;5051791;28;20051;-59
2021/10/10 14:38:03;;;;;;;8.45;5.15;;;;;;;;;;5069619;28;20443;-59
2021/10/10 14:40:43;;;;;;;10.18;5.43;;;;;;;;;;5052827;28;20029;-60
2021/10/10 14:43:24;;;;;;;9.27;6.37;;;;;;;;;;5052045;28;20341;-59
2021/10/10 14:49:21;;;;;;;8.90;6.40;;;;;;;;;;5054583;28;20040;-59
2021/10/10 14:52:06;;;;;;;13.48;6.90;;;;;;;;;;5061584;28;20063;-60
2021/10/10 14:57:36;;;;;;;6.40;5.50;;;;;;;;;;5050762;28;20107;-59
2021/10/10 15:00:17;;;;;;;6.80;5.43;;;;;;;;;;5052953;28;20048;-59
2021/10/10 15:03:11;;;;;;;10.40;7.45;;;;;;;;;;5053650;28;20025;-59
2021/10/10 15:05:48;;;;;;;7.15;6.38;;;;;;;;;;5051893;28;20479;-59
2021/10/10 15:11:27;;;;;;;9.85;6.03;;;;;;;;;;5053568;28;20054;-60
2021/10/10 15:13:59;;;;;;;7.28;6.53;;;;;;;;;;5050822;28;20025;-60
2021/10/10 15:16:46;;;;;;;9.32;6.03;;;;;;;;;;5050010;28;20174;-60
2021/10/10 15:19:38;;;;;;;13.63;9.05;;;;;;;;;;5045781;28;20416;-60
2021/10/10 15:22:23;;;;;;;;;;;;;;;;;;;;;
2021/10/10 15:28:30;;;;;;;44.08;29.55;;;;;;;;;;5049662;28;20033;-59
2021/10/10 15:31:11;;;;;;;16.40;11.48;;;;;;;;;;5044624;28;20139;-59
2021/10/10 15:33:56;;;;;;;;;;;;;;;;;;5070471;28;20094;-58
2021/10/10 15:36:27;;;;;;;10.80;8.52;;;;;;;;;;5073011;28;19905;-58
2021/10/10 15:42:13;;;;;;;9.80;6.70;;;;;;;;;;5072995;28;20070;-58
2021/10/10 15:44:56;;;;;;;8.25;6.00;;;;;;;;;;5076823;28;20036;-58
2021/10/10 15:50:32;;;;;;;;;;;;;;;;;;5076968;28;20032;-58
2021/10/10 15:53:09;;;;;;;9.20;7.15;;;;;;;;;;5060730;28;19905;-58
2021/10/10 15:55:50;;;;;;;10.82;6.80;;;;;;;;;;5056955;28;20498;-58
2021/10/10 15:58:35;;;;;;;9.00;6.40;;;;;;;;;;5055930;28;20217;-58
2021/10/10 16:01:13;;;;;;;8.05;5.95;;;;;;;;;;5059963;28;20037;-58
2021/10/10 16:03:58;;;;;;;11.50;6.93;;;;;;;;;;5069679;28;20031;-58
2021/10/10 16:06:45;;;;;;;11.90;6.57;;;;;;;;;;5069349;28;20021;-58
2021/10/10 16:09:16;;;;;;;7.15;5.20;;;;;;;;;;5050484;28;20545;-58
2021/10/10 16:12:09;;;;;;;8.35;5.50;;;;;;;;;;5056490;28;20057;-58
2021/10/10 16:18:18;;;;;;;8.90;6.40;;;;;;;;;;5042978;28;20057;-58
2021/10/10 16:21:05;;;;;;;11.95;5.80;;;;;;;;;;5056674;28;20029;-58
2021/10/10 16:23:41;;;;;;;8.80;5.35;;;;;;;;;;5069732;28;20040;-58
2021/10/10 16:26:14;;;;;;;8.35;5.65;;;;;;;;;;5075382;28;20174;-58
2021/10/10 16:28:43;;;;;;;9.73;6.00;;;;;;;;;;5069993;28;20036;-57
2021/10/10 16:34:33;;;;;;;6.90;5.25;;;;;;;;;;5073115;28;20040;-58
2021/10/10 16:40:09;;;;;;;13.35;6.05;;;;;;;;;;5076767;28;20028;-58
2021/10/10 16:45:26;;;;;;;8.85;5.97;;;;;;;;;;5062657;28;20066;-58
2021/10/10 16:47:55;;;;;;;9.85;7.10;;;;;;;;;;5063547;28;20031;-58
2021/10/10 16:50:36;;;;;;;9.35;6.53;;;;;;;;;;5072420;28;20085;-58
2021/10/10 16:53:05;;;;;;;;;;;;;;;;;;5072978;28;20146;-58
2021/10/10 17:01:48;;;;;;;10.68;5.95;;;;;;;;;;5072638;28;20547;-58
2021/10/10 17:04:20;;;;;;;10.65;6.38;;;;;;;;;;5073448;28;20033;-58
2021/10/10 17:07:14;;;;;;;8.10;6.40;;;;;;;;;;5069575;28;20016;-58
2021/10/10 17:10:00;;;;;;;9.38;5.65;;;;;;;;;;5051497;28;20033;-58
2021/10/10 17:12:46;;;;;;;8.57;5.60;;;;;;;;;;5053344;28;20092;-58
2021/10/10 17:21:16;;;;;;;7.72;6.22;;;;;;;;;;5070555;28;20390;-58
2021/10/10 17:30:02;;;;;;;10.68;6.97;;;;;;;;;;5078947;28;20028;-57
2021/10/10 17:35:34;;;;;;;9.85;6.25;;;;;;;;;;5051384;28;20063;-58
2021/10/10 17:38:22;;;;;;;11.85;7.35;;;;;;;;;;5031799;28;20021;-58
2021/10/10 17:40:54;;;;;;;9.93;7.20;;;;;;;;;;5054881;28;20028;-57
2021/10/10 17:43:41;;;;;;;10.15;6.63;;;;;;;;;;5074613;28;20021;-58
2021/10/10 17:46:30;;;;;;;10.82;7.22;;;;;;;;;;5075434;28;20027;-57
2021/10/10 17:49:35;;;;;;;7.68;6.57;;;;;;;;;;5074108;28;20028;-57
2021/10/10 17:52:13;;;;;;;10.35;6.95;;;;;;;;;;5072930;28;20036;-58
2021/10/10 17:58:03;;;;;;;9.35;6.90;;;;;;;;;;5074248;28;20032;-58
2021/10/10 18:14:46;;;;;;;8.45;6.07;;;;;;;;;;5072222;28;20405;-57
2021/10/10 18:17:20;;;;;;;10.25;7.47;;;;;;;;;;5073596;28;20078;-58
2021/10/10 18:20:23;;;;;;;9.77;7.47;;;;;;;;;;5066468;28;20074;-57
2021/10/10 18:23:11;;;;;;;10.05;7.40;;;;;;;;;;5053816;28;20032;-59
2021/10/10 18:28:51;;;;;;;9.50;7.38;;;;;;;;;;5052904;28;20040;-59
2021/10/10 18:31:24;;;;;;;12.65;8.25;;;;;;;;;;5041485;28;20060;-59
2021/10/10 18:34:08;;;;;;;12.65;7.95;;;;;;;;;;5053408;28;20033;-59
2021/10/10 18:37:16;;;;;;;;;;;;;;;;;;;;;
2021/10/10 18:40:06;;;;;;;12.50;9.73;;;;;;;;;;5053985;28;20025;-59
2021/10/10 18:46:11;;;;;;;14.85;10.75;;;;;;;;;;5058049;28;20048;-60
2021/10/10 18:48:50;;;;;;;16.35;10.18;;;;;;;;;;5072341;28;20390;-59
2021/10/10 18:51:29;;;;;;;12.85;10.63;;;;;;;;;;5065808;28;20020;-59
2021/10/10 18:54:21;;;;;;;12.52;10.70;;;;;;;;;;5054426;28;20039;-59
2021/10/10 18:56:55;;;;;;;11.98;9.65;;;;;;;;;;5053658;28;20032;-59
2021/10/10 19:02:35;;;;;;;14.95;11.18;;;;;;;;;;5069729;28;20109;-60
2021/10/10 19:05:37;;;;;;;12.93;10.23;;;;;;;;;;5074394;28;20083;-59
2021/10/10 19:11:33;;;;;;;18.95;10.50;;;;;;;;;;5071010;28;20079;-59
2021/10/10 19:14:05;;;;;;;12.13;10.38;;;;;;;;;;5043195;28;20427;-59
2021/10/10 19:16:49;;;;;;;15.40;9.50;;;;;;;;;;5052143;28;20083;-59
2021/10/10 19:19:25;;;;;;;13.35;9.75;;;;;;;;;;5053747;28;20021;-60
2021/10/10 19:22:22;;;;;;;15.77;10.55;;;;;;;;;;5058808;28;20029;-60
2021/10/10 19:25:23;;;;;;;12.88;9.68;;;;;;;;;;5053956;28;20613;-60
2021/10/10 19:28:01;;;;;;;12.68;9.80;;;;;;;;;;5052972;28;20029;-60
2021/10/10 19:31:02;;;;;;;13.52;10.00;;;;;;;;;;5054108;28;20059;-59
2021/10/10 19:33:51;;;;;;;14.73;10.82;;;;;;;;;;5067541;28;20449;-59
2021/10/10 19:36:23;;;;;;;16.30;10.70;;;;;;;;;;5052988;28;20106;-59
2021/10/10 19:38:58;;;;;;;11.25;9.10;;;;;;;;;;5052075;28;20499;-60
2021/10/10 19:41:42;;;;;;;21.73;15.25;;;;;;;;;;5066270;28;20139;-59
2021/10/10 19:50:30;;;;;;;21.30;16.08;;;;;;;;;;5066443;28;20116;-58
2021/10/10 19:53:06;;;;;;;26.83;14.57;;;;;;;;;;5052614;28;20475;-59
2021/10/10 19:55:46;;;;;;;16.88;14.15;;;;;;;;;;5051667;28;20044;-59
2021/10/10 20:01:10;;;;;;;16.90;11.60;;;;;;;;;;5053001;28;20037;-59
2021/10/10 20:06:58;;;;;;;16.13;12.65;;;;;;;;;;5029186;28;20029;-59
2021/10/10 20:09:32;;;;;;;20.20;13.15;;;;;;;;;;5049984;28;20096;-59
2021/10/10 20:12:11;;;;;;;15.60;13.30;;;;;;;;;;5072198;28;20020;-59
2021/10/10 20:15:00;;;;;;;14.43;12.88;;;;;;;;;;5072653;28;20025;-59
2021/10/10 20:17:39;;;;;;;14.93;11.60;;;;;;;;;;5070500;28;20021;-60
2021/10/10 20:23:18;;;;;;;14.48;12.15;;;;;;;;;;5052806;28;20120;-60
2021/10/10 20:28:54;;;;;;;17.88;12.48;;;;;;;;;;5051119;28;20037;-59
2021/10/10 20:31:41;;;;;;;13.60;12.25;;;;;;;;;;5066059;28;20033;-59
2021/10/10 20:40:20;;;;;;;17.95;12.50;;;;;;;;;;5056580;28;20064;-59
2021/10/10 20:46:05;;;;;;;14.23;11.63;;;;;;;;;;5072118;28;20044;-59
2021/10/10 20:48:47;;;;;;;;;;;;;;;;;;;;;
2021/10/10 20:51:43;;;;;;;13.07;10.88;;;;;;;;;;5057716;28;20032;-59
2021/10/10 20:54:23;;;;;;;15.45;12.60;;;;;;;;;;5038477;28;20087;-59
2021/10/10 20:56:49;;;;;;;12.60;11.18;;;;;;;;;;5049167;28;20316;-60
2021/10/10 20:59:36;;;;;;;21.27;12.70;;;;;;;;;;5050908;28;20490;-59
2021/10/10 21:02:15;;;;;;;19.25;13.13;;;;;;;;;;5055367;28;20032;-59
2021/10/10 21:04:57;;;;;;;16.80;12.40;;;;;;;;;;5056215;28;20076;-59
2021/10/10 21:07:26;;;;;;;15.27;12.18;;;;;;;;;;5055603;28;20045;-59
2021/10/10 21:10:04;;;;;;;14.63;12.40;;;;;;;;;;5056517;28;20047;-59
2021/10/10 21:12:51;;;;;;;15.20;11.75;;;;;;;;;;5056203;28;20730;-59
2021/10/10 21:18:36;;;;;;;15.98;12.25;;;;;;;;;;5058340;28;20032;-59
2021/10/10 21:21:05;;;;;;;14.18;10.77;;;;;;;;;;5060270;28;20047;-59
2021/10/10 21:27:07;;;;;;;;;;;;;;;;;;;;;
2021/10/10 21:29:49;;;;;;;14.48;10.90;;;;;;;;;;5059032;28;20092;-59
2021/10/10 21:35:48;;;;;;;15.07;11.38;;;;;;;;;;5080570;28;20032;-59
2021/10/10 21:38:27;;;;;;;14.75;10.93;;;;;;;;;;5079607;28;20062;-59
2021/10/10 21:40:59;;;;;;;13.77;12.02;;;;;;;;;;5081057;28;20030;-59
2021/10/10 21:43:35;;;;;;;16.83;11.43;;;;;;;;;;5080248;28;20056;-59
2021/10/10 21:46:05;;;;;;;15.63;10.40;;;;;;;;;;5080810;28;20028;-59
2021/10/10 21:48:32;;;;;;;15.07;10.90;;;;;;;;;;5080637;28;20048;-59
2021/10/10 21:59:58;;;;;;;14.85;12.15;;;;;;;;;;5074955;28;20032;-59